createdAt,value
2023-05-27T00:01:33.378Z,7.13
2023-05-27T00:03:36.241Z,7.25
2023-05-27T00:05:39.026Z,7.40
2023-05-27T00:07:42.214Z,6.72
2023-05-27T00:09:44.956Z,7.20
2023-05-27T00:11:47.579Z,6.47
2023-05-27T00:13:51.536Z,6.63
2023-05-27T00:15:54.365Z,6.90
2023-05-27T00:17:57.202Z,6.53
2023-05-27T00:20:06.874Z,6.25
2023-05-27T00:22:09.559Z,7.30
2023-05-27T00:24:12.403Z,6.63
2023-05-27T00:26:15.569Z,6.40
2023-05-27T00:28:19.389Z,6.45
2023-05-27T00:30:23.388Z,6.05
2023-05-27T00:32:26.137Z,6.78
2023-05-27T00:34:28.794Z,6.55
2023-05-27T00:36:32.765Z,6.47
2023-05-27T00:38:36.497Z,6.05
2023-05-27T00:40:41.739Z,6.57
2023-05-27T00:42:44.460Z,5.85
2023-05-27T00:44:49.981Z,5.97
2023-05-27T00:46:54.199Z,6.53
2023-05-27T00:48:56.984Z,6.32
2023-05-27T00:50:59.719Z,6.22
2023-05-27T00:53:02.852Z,6.10
2023-05-27T00:55:06.310Z,6.30
2023-05-27T00:57:08.943Z,5.55
2023-05-27T00:59:11.715Z,7.20
2023-05-27T01:01:14.385Z,5.88
2023-05-27T01:03:18.802Z,5.95
2023-05-27T01:05:22.617Z,6.57
2023-05-27T01:07:36.422Z,5.88
2023-05-27T01:09:43.635Z,6.10
2023-05-27T01:11:53.211Z,6.28
2023-05-27T01:14:01.057Z,6.13
2023-05-27T01:16:07.772Z,5.55
2023-05-27T01:18:11.569Z,5.15
2023-05-27T01:20:16.812Z,5.57
2023-05-27T01:22:21.438Z,5.93
2023-05-27T01:24:25.406Z,5.43
2023-05-27T01:26:28.057Z,5.53
2023-05-27T01:28:30.843Z,6.68
2023-05-27T01:30:33.891Z,6.10
2023-05-27T01:32:42.313Z,5.65
2023-05-27T01:34:52.324Z,5.50
2023-05-27T01:37:00.771Z,5.68
2023-05-27T01:39:05.975Z,5.68
2023-05-27T01:41:11.751Z,5.72
2023-05-27T01:43:16.672Z,5.63
2023-05-27T01:45:19.459Z,5.45
2023-05-27T01:47:22.092Z,5.22
2023-05-27T01:49:24.720Z,5.95
2023-05-27T01:51:27.349Z,5.85
2023-05-27T01:53:30.044Z,5.70
2023-05-27T01:55:32.832Z,6.20
2023-05-27T01:57:36.843Z,6.00
2023-05-27T01:59:40.075Z,5.43
2023-05-27T02:01:43.163Z,5.28
2023-05-27T02:03:46.105Z,5.15
2023-05-27T02:05:48.754Z,5.80
2023-05-27T02:07:51.392Z,5.45
2023-05-27T02:09:54.060Z,6.28
2023-05-27T02:11:56.641Z,5.95
2023-05-27T02:14:02.275Z,6.22
2023-05-27T02:16:05.090Z,5.72
2023-05-27T02:18:07.754Z,5.55
2023-05-27T02:20:11.280Z,5.40
2023-05-27T02:22:14.000Z,5.35
2023-05-27T02:24:16.637Z,5.40
2023-05-27T02:26:19.494Z,5.03
2023-05-27T02:28:22.092Z,5.75
2023-05-27T02:30:26.108Z,4.90
2023-05-27T02:32:32.216Z,5.60
2023-05-27T02:34:38.070Z,5.75
2023-05-27T02:36:40.772Z,5.80
2023-05-27T02:38:43.370Z,5.53
2023-05-27T02:40:46.137Z,4.53
2023-05-27T02:42:48.741Z,5.30
2023-05-27T02:44:51.374Z,4.97
2023-05-27T02:46:55.347Z,5.30
2023-05-27T02:48:57.952Z,5.53
2023-05-27T02:51:00.571Z,5.55
2023-05-27T02:53:03.189Z,5.28
2023-05-27T02:55:07.093Z,6.22
2023-05-27T02:57:09.734Z,5.30
2023-05-27T02:59:12.320Z,5.20
2023-05-27T03:01:15.110Z,6.28
2023-05-27T03:03:19.339Z,4.97
2023-05-27T03:05:22.153Z,5.60
2023-05-27T03:07:24.799Z,5.05
2023-05-27T03:09:27.390Z,5.60
2023-05-27T03:11:30.003Z,5.45
2023-05-27T03:13:32.617Z,5.65
2023-05-27T03:15:36.308Z,5.95
2023-05-27T03:17:39.750Z,5.10
2023-05-27T03:19:44.354Z,4.97
2023-05-27T03:21:46.984Z,5.28
2023-05-27T03:23:49.611Z,5.78
2023-05-27T03:25:52.564Z,5.65
2023-05-27T03:27:55.287Z,5.57
2023-05-27T03:29:57.929Z,5.28
2023-05-27T03:32:00.969Z,5.85
2023-05-27T03:34:03.719Z,6.47
2023-05-27T03:36:09.306Z,4.60
2023-05-27T03:38:11.956Z,5.43
2023-05-27T03:40:14.636Z,4.85
2023-05-27T03:42:17.332Z,5.25
2023-05-27T03:44:19.946Z,6.30
2023-05-27T03:46:22.633Z,5.00
2023-05-27T03:48:25.403Z,5.55
2023-05-27T03:50:28.006Z,5.60
2023-05-27T03:52:32.028Z,5.65
2023-05-27T03:54:34.700Z,5.28
2023-05-27T03:56:37.332Z,6.30
2023-05-27T03:58:40.047Z,5.20
2023-05-27T04:00:42.877Z,4.75
2023-05-27T04:02:45.627Z,5.43
2023-05-27T04:04:48.316Z,5.45
2023-05-27T04:06:51.010Z,5.55
2023-05-27T04:08:55.026Z,5.63
2023-05-27T04:10:57.737Z,5.00
2023-05-27T04:13:00.384Z,4.47
2023-05-27T04:15:03.013Z,5.45
2023-05-27T04:17:05.649Z,5.15
2023-05-27T04:19:08.346Z,4.75
2023-05-27T04:21:11.016Z,5.47
2023-05-27T04:23:13.633Z,5.60
2023-05-27T04:25:17.648Z,4.93
2023-05-27T04:27:20.225Z,5.15
2023-05-27T04:29:23.680Z,5.30
2023-05-27T04:31:29.629Z,4.70
2023-05-27T04:33:32.385Z,5.50
2023-05-27T04:35:35.651Z,5.28
2023-05-27T04:37:38.728Z,5.43
2023-05-27T04:39:46.499Z,5.07
2023-05-27T04:41:50.562Z,4.82
2023-05-27T04:43:53.170Z,5.82
2023-05-27T04:45:57.035Z,5.22
2023-05-27T04:47:59.844Z,5.10
2023-05-27T04:50:03.882Z,4.43
2023-05-27T04:52:08.232Z,5.30
2023-05-27T04:54:10.959Z,5.65
2023-05-27T04:56:16.086Z,4.97
2023-05-27T04:58:20.131Z,5.10
2023-05-27T05:00:37.206Z,5.45
2023-05-27T05:06:03.486Z,5.53
2023-05-27T05:08:06.711Z,5.82
2023-05-27T05:10:10.753Z,5.10
2023-05-27T05:12:13.868Z,5.43
2023-05-27T05:14:17.831Z,5.60
2023-05-27T05:16:20.682Z,5.60
2023-05-27T05:18:23.401Z,6.35
2023-05-27T05:20:26.376Z,5.50
2023-05-27T05:22:29.996Z,5.45
2023-05-27T05:24:32.712Z,5.88
2023-05-27T05:26:35.286Z,6.07
2023-05-27T05:28:37.901Z,5.85
2023-05-27T05:30:41.863Z,5.53
2023-05-27T05:32:44.555Z,5.60
2023-05-27T05:34:47.321Z,5.93
2023-05-27T05:36:49.935Z,6.20
2023-05-27T05:38:52.563Z,5.57
2023-05-27T05:40:55.505Z,5.35
2023-05-27T05:43:00.451Z,5.22
2023-05-27T05:45:03.088Z,5.35
2023-05-27T05:47:07.256Z,5.75
2023-05-27T05:49:10.209Z,5.68
2023-05-27T05:51:12.989Z,5.57
2023-05-27T05:53:15.663Z,5.75
2023-05-27T05:55:18.311Z,5.97
2023-05-27T05:57:20.899Z,5.40
2023-05-27T05:59:23.542Z,5.50
2023-05-27T06:01:28.019Z,5.35
2023-05-27T06:03:32.132Z,5.10
2023-05-27T06:05:34.896Z,5.38
2023-05-27T06:07:37.634Z,5.55
2023-05-27T06:09:40.307Z,5.95
2023-05-27T06:11:42.934Z,5.18
2023-05-27T06:13:45.682Z,5.65
2023-05-27T06:15:48.339Z,6.00
2023-05-27T06:17:51.059Z,5.85
2023-05-27T06:19:55.008Z,6.45
2023-05-27T06:21:57.644Z,5.30
2023-05-27T06:24:00.782Z,6.00
2023-05-27T06:26:04.556Z,5.53
2023-05-27T06:28:07.371Z,5.40
2023-05-27T06:30:10.847Z,5.45
2023-05-27T06:32:13.472Z,5.55
2023-05-27T06:34:17.174Z,6.35
2023-05-27T06:36:21.230Z,5.50
2023-05-27T06:38:23.856Z,6.15
2023-05-27T06:40:26.583Z,6.15
2023-05-27T06:42:29.211Z,5.82
2023-05-27T06:44:31.844Z,5.15
2023-05-27T06:46:34.624Z,5.85
2023-05-27T06:48:37.390Z,5.75
2023-05-27T06:50:41.902Z,5.65
2023-05-27T06:52:45.950Z,5.53
2023-05-27T06:54:49.260Z,5.82
2023-05-27T06:56:52.138Z,5.95
2023-05-27T06:58:54.760Z,5.32
2023-05-27T07:00:57.434Z,5.78
2023-05-27T07:03:01.587Z,5.32
2023-05-27T07:05:04.689Z,5.80
2023-05-27T07:07:07.359Z,6.13
2023-05-27T07:09:12.213Z,6.03
2023-05-27T07:11:14.882Z,5.80
2023-05-27T07:13:17.488Z,6.30
2023-05-27T07:15:20.336Z,6.22
2023-05-27T07:17:23.015Z,6.47
2023-05-27T07:19:25.637Z,6.10
2023-05-27T07:21:28.378Z,5.82
2023-05-27T07:23:31.027Z,6.22
2023-05-27T07:25:35.012Z,5.63
2023-05-27T07:27:37.711Z,5.63
2023-05-27T07:29:40.313Z,6.32
2023-05-27T07:31:43.055Z,5.97
2023-05-27T07:33:45.735Z,6.30
2023-05-27T07:35:48.466Z,5.65
2023-05-27T07:37:51.066Z,6.18
2023-05-27T07:39:53.758Z,5.80
2023-05-27T07:41:57.793Z,5.82
2023-05-27T07:44:00.835Z,6.38
2023-05-27T07:46:03.555Z,5.85
2023-05-27T07:48:06.383Z,6.70
2023-05-27T07:50:10.181Z,5.97
2023-05-27T07:52:12.814Z,5.88
2023-05-27T07:54:15.442Z,6.65
2023-05-27T07:56:18.288Z,6.78
2023-05-27T07:58:22.286Z,5.75
2023-05-27T08:00:24.998Z,6.15
2023-05-27T08:02:27.663Z,6.30
2023-05-27T08:04:30.435Z,6.43
2023-05-27T08:06:33.139Z,6.70
2023-05-27T08:08:35.757Z,6.63
2023-05-27T08:10:38.356Z,6.80
2023-05-27T08:12:41.047Z,5.90
2023-05-27T08:14:45.911Z,5.78
2023-05-27T08:16:48.652Z,6.32
2023-05-27T08:18:51.638Z,5.72
2023-05-27T08:20:54.599Z,5.78
2023-05-27T08:22:57.525Z,6.40
2023-05-27T08:25:00.139Z,5.90
2023-05-27T08:27:03.689Z,5.40
2023-05-27T08:29:06.601Z,5.78
2023-05-27T08:31:11.467Z,6.93
2023-05-27T08:33:14.230Z,6.85
2023-05-27T08:35:18.148Z,5.90
2023-05-27T08:37:20.777Z,6.35
2023-05-27T08:39:23.603Z,6.30
2023-05-27T08:41:28.110Z,6.97
2023-05-27T08:43:31.529Z,5.93
2023-05-27T08:45:34.413Z,6.53
2023-05-27T08:47:40.930Z,6.60
2023-05-27T08:49:43.667Z,6.07
2023-05-27T08:51:47.528Z,6.32
2023-05-27T08:53:50.544Z,6.55
2023-05-27T08:55:56.203Z,5.97
2023-05-27T08:58:00.795Z,6.15
2023-05-27T09:00:06.239Z,6.82
2023-05-27T09:02:15.425Z,6.70
2023-05-27T09:04:19.543Z,7.00
2023-05-27T09:06:22.289Z,6.38
2023-05-27T09:08:35.145Z,6.07
2023-05-27T09:10:38.844Z,6.80
2023-05-27T09:12:45.321Z,6.22
2023-05-27T09:14:51.361Z,6.72
2023-05-27T09:16:53.964Z,5.97
2023-05-27T09:18:56.577Z,6.30
2023-05-27T09:21:01.665Z,6.10
2023-05-27T09:23:06.428Z,6.35
2023-05-27T09:25:11.458Z,6.30
2023-05-27T09:27:15.575Z,6.68
2023-05-27T09:29:20.303Z,6.55
2023-05-27T09:31:24.098Z,5.72
2023-05-27T09:33:28.218Z,5.80
2023-05-27T09:35:31.040Z,6.45
2023-05-27T09:37:37.063Z,6.22
2023-05-27T09:39:41.049Z,5.72
2023-05-27T09:41:43.935Z,6.05
2023-05-27T09:43:55.793Z,6.90
2023-05-27T09:46:01.239Z,6.10
2023-05-27T09:48:08.986Z,5.47
2023-05-27T09:50:15.242Z,6.45
2023-05-27T09:52:21.567Z,5.80
2023-05-27T09:54:26.294Z,6.05
2023-05-27T09:56:30.351Z,6.30
2023-05-27T09:58:33.135Z,6.72
2023-05-27T10:00:35.995Z,6.25
2023-05-27T10:02:39.779Z,6.47
2023-05-27T10:04:43.204Z,5.63
2023-05-27T10:06:46.830Z,6.47
2023-05-27T10:08:49.625Z,5.60
2023-05-27T10:10:54.165Z,6.03
2023-05-27T10:12:59.270Z,6.25
2023-05-27T10:15:01.958Z,5.90
2023-05-27T10:17:04.931Z,6.55
2023-05-27T10:19:12.574Z,6.40
2023-05-27T10:21:20.595Z,6.50
2023-05-27T10:23:27.524Z,6.60
2023-05-27T10:25:38.215Z,6.90
2023-05-27T10:27:46.324Z,6.55
2023-05-27T10:29:59.489Z,5.72
2023-05-27T10:32:02.288Z,6.43
2023-05-27T10:34:07.012Z,6.22
2023-05-27T10:36:10.975Z,6.53
2023-05-27T10:38:18.502Z,6.78
2023-05-27T10:40:26.391Z,6.70
2023-05-27T10:42:29.079Z,6.50
2023-05-27T10:44:35.510Z,6.53
2023-05-27T10:46:43.069Z,7.05
2023-05-27T10:48:46.331Z,6.63
2023-05-27T10:50:53.131Z,8.43
2023-05-27T10:52:55.847Z,6.20
2023-05-27T10:54:59.077Z,6.13
2023-05-27T10:57:03.843Z,6.85
2023-05-27T10:59:12.043Z,6.05
2023-05-27T11:01:16.689Z,7.05
2023-05-27T11:03:22.686Z,6.07
2023-05-27T11:05:30.613Z,6.07
2023-05-27T11:07:33.212Z,7.85
2023-05-27T11:09:45.011Z,6.13
2023-05-27T11:11:47.667Z,6.28
2023-05-27T11:13:50.351Z,5.38
2023-05-27T11:15:53.059Z,6.32
2023-05-27T11:18:02.440Z,6.43
2023-05-27T11:20:07.659Z,6.03
2023-05-27T11:22:12.377Z,6.60
2023-05-27T11:24:18.860Z,6.32
2023-05-27T11:26:23.755Z,6.53
2023-05-27T11:28:26.721Z,6.70
2023-05-27T11:30:29.865Z,6.32
2023-05-27T11:32:36.321Z,6.90
2023-05-27T11:34:40.849Z,7.00
2023-05-27T11:36:46.498Z,6.18
2023-05-27T11:38:51.543Z,6.63
2023-05-27T11:40:54.432Z,7.00
2023-05-27T11:43:02.187Z,6.63
2023-05-27T11:45:07.910Z,6.78
2023-05-27T11:47:10.560Z,6.55
2023-05-27T11:49:14.714Z,6.47
2023-05-27T11:51:18.764Z,6.68
2023-05-27T11:53:21.411Z,6.43
2023-05-27T11:55:24.233Z,7.07
2023-05-27T11:57:26.961Z,6.47
2023-05-27T11:59:29.608Z,6.65
2023-05-27T12:01:32.258Z,6.93
2023-05-27T12:03:36.067Z,6.60
2023-05-27T12:05:38.767Z,6.35
2023-05-27T12:07:42.811Z,6.45
2023-05-27T12:09:45.425Z,6.65
2023-05-27T12:11:48.095Z,6.82
2023-05-27T12:13:52.223Z,6.38
2023-05-27T12:15:54.931Z,6.03
2023-05-27T12:17:57.932Z,6.45
2023-05-27T12:20:00.623Z,6.20
2023-05-27T12:22:03.272Z,6.28
2023-05-27T12:24:07.879Z,6.38
2023-05-27T12:26:10.956Z,6.05
2023-05-27T12:28:13.546Z,6.90
2023-05-27T12:30:16.352Z,6.03
2023-05-27T12:32:19.076Z,6.55
2023-05-27T12:34:21.687Z,5.80
2023-05-27T12:36:24.256Z,6.72
2023-05-27T12:38:27.070Z,5.90
2023-05-27T12:40:31.220Z,6.78
2023-05-27T12:42:34.372Z,6.32
2023-05-27T12:44:37.012Z,5.97
2023-05-27T12:46:39.646Z,6.15
2023-05-27T12:48:42.236Z,6.50
2023-05-27T12:50:45.058Z,6.90
2023-05-27T12:52:47.909Z,6.32
2023-05-27T12:54:50.476Z,6.22
2023-05-27T12:56:54.512Z,6.68
2023-05-27T12:58:57.152Z,7.50
2023-05-27T13:00:59.882Z,7.70
2023-05-27T13:03:03.003Z,7.38
2023-05-27T13:05:07.820Z,6.78
2023-05-27T13:07:12.147Z,6.47
2023-05-27T13:09:15.115Z,6.45
2023-05-27T13:11:18.432Z,7.00
2023-05-27T13:13:23.166Z,6.65
2023-05-27T13:15:25.999Z,6.22
2023-05-27T13:17:28.968Z,6.30
2023-05-27T13:19:31.568Z,7.43
2023-05-27T13:21:34.245Z,7.03
2023-05-27T13:23:36.992Z,6.85
2023-05-27T13:25:39.660Z,6.43
2023-05-27T13:27:45.533Z,6.30
2023-05-27T13:29:49.673Z,6.10
2023-05-27T13:31:52.287Z,5.32
2023-05-27T13:33:54.890Z,5.68
2023-05-27T13:35:57.580Z,5.97
2023-05-27T13:38:01.410Z,5.88
2023-05-27T13:40:05.550Z,5.75
2023-05-27T13:42:08.451Z,5.28
2023-05-27T13:44:11.054Z,5.50
2023-05-27T13:46:15.102Z,4.88
2023-05-27T13:48:18.100Z,5.57
2023-05-27T13:50:20.858Z,5.20
2023-05-27T13:52:23.604Z,5.47
2023-05-27T13:54:26.381Z,4.80
2023-05-27T13:56:28.969Z,5.53
2023-05-27T13:58:31.602Z,4.82
2023-05-27T14:00:34.236Z,4.85
2023-05-27T14:02:38.158Z,5.38
2023-05-27T14:04:40.802Z,5.10
2023-05-27T14:06:43.443Z,5.50
2023-05-27T14:08:46.522Z,5.20
2023-05-27T14:10:49.091Z,5.30
2023-05-27T14:12:51.707Z,5.32
2023-05-27T14:14:54.351Z,5.13
2023-05-27T14:16:57.693Z,5.05
2023-05-27T14:19:01.844Z,4.38
2023-05-27T14:21:04.850Z,5.28
2023-05-27T14:23:11.730Z,4.38
2023-05-27T14:25:14.403Z,4.97
2023-05-27T14:27:17.043Z,4.88
2023-05-27T14:29:19.725Z,5.05
2023-05-27T14:31:22.423Z,4.85
2023-05-27T14:33:25.036Z,5.10
2023-05-27T14:35:28.973Z,4.88
2023-05-27T14:37:31.594Z,4.40
2023-05-27T14:39:34.200Z,5.53
2023-05-27T14:41:36.807Z,4.85
2023-05-27T14:43:39.424Z,4.88
2023-05-27T14:45:42.156Z,4.88
2023-05-27T14:47:44.777Z,4.53
2023-05-27T14:49:47.346Z,4.70
2023-05-27T14:51:51.252Z,4.90
2023-05-27T14:53:53.828Z,4.03
2023-05-27T14:55:56.590Z,4.63
2023-05-27T14:57:59.260Z,4.20
2023-05-27T15:00:01.959Z,4.35
2023-05-27T15:02:04.962Z,4.60
2023-05-27T15:04:07.785Z,5.97
2023-05-27T15:06:11.621Z,4.43
2023-05-27T15:08:17.009Z,4.68
2023-05-27T15:10:19.646Z,4.45
2023-05-27T15:12:23.306Z,4.28
2023-05-27T15:14:26.517Z,5.05
2023-05-27T15:16:29.475Z,4.85
2023-05-27T15:18:32.119Z,4.55
2023-05-27T15:20:34.778Z,4.57
2023-05-27T15:22:37.440Z,4.55
2023-05-27T15:24:41.399Z,5.00
2023-05-27T15:26:44.065Z,4.15
2023-05-27T15:28:46.656Z,4.40
2023-05-27T15:30:49.360Z,3.97
2023-05-27T15:32:52.008Z,4.15
2023-05-27T15:34:54.693Z,4.70
2023-05-27T15:36:59.413Z,4.30
2023-05-27T15:39:02.060Z,4.22
2023-05-27T15:41:06.637Z,4.68
2023-05-27T15:43:09.786Z,4.68
2023-05-27T15:45:14.265Z,4.30
2023-05-27T15:47:16.997Z,4.30
2023-05-27T15:49:19.603Z,4.57
2023-05-27T15:51:23.654Z,4.38
2023-05-27T15:53:26.894Z,4.38
2023-05-27T15:55:29.577Z,4.22
2023-05-27T15:57:33.644Z,4.53
2023-05-27T15:59:36.555Z,4.60
2023-05-27T16:01:39.433Z,4.20
2023-05-27T16:03:42.149Z,4.28
2023-05-27T16:05:44.822Z,6.22
2023-05-27T16:07:47.408Z,4.30
2023-05-27T16:09:50.009Z,4.22
2023-05-27T16:11:52.856Z,4.93
2023-05-27T16:13:56.831Z,4.55
2023-05-27T16:15:59.425Z,4.22
2023-05-27T16:18:02.239Z,4.25
2023-05-27T16:20:05.797Z,4.47
2023-05-27T16:22:08.442Z,4.60
2023-05-27T16:24:11.527Z,4.43
2023-05-27T16:26:14.871Z,4.70
2023-05-27T16:28:18.616Z,4.00
2023-05-27T16:30:22.901Z,4.40
2023-05-27T16:32:26.290Z,4.57
2023-05-27T16:34:29.702Z,4.60
2023-05-27T16:36:32.861Z,4.85
2023-05-27T16:38:35.891Z,4.57
2023-05-27T16:40:38.621Z,4.65
2023-05-27T16:42:41.328Z,5.07
2023-05-27T16:44:43.914Z,4.45
2023-05-27T16:46:47.970Z,4.30
2023-05-27T16:48:50.742Z,5.00
2023-05-27T16:50:53.352Z,4.60
2023-05-27T16:52:56.004Z,4.47
2023-05-27T16:54:59.566Z,5.03
2023-05-27T16:57:03.396Z,4.47
2023-05-27T16:59:06.035Z,4.70
2023-05-27T17:01:08.775Z,4.30
2023-05-27T17:03:12.930Z,4.10
2023-05-27T17:05:16.838Z,4.40
2023-05-27T17:07:19.639Z,4.28
2023-05-27T17:09:24.125Z,4.30
2023-05-27T17:11:27.640Z,4.95
2023-05-27T17:13:30.380Z,5.57
2023-05-27T17:15:33.131Z,4.40
2023-05-27T17:17:36.547Z,4.32
2023-05-27T17:19:40.621Z,5.00
2023-05-27T17:21:43.301Z,4.93
2023-05-27T17:23:46.134Z,4.40
2023-05-27T17:25:48.746Z,4.50
2023-05-27T17:27:51.486Z,5.53
2023-05-27T17:29:54.637Z,5.40
2023-05-27T17:31:57.458Z,4.05
2023-05-27T17:34:02.390Z,5.03
2023-05-27T17:36:07.425Z,4.78
2023-05-27T17:38:12.090Z,4.28
2023-05-27T17:40:15.072Z,4.20
2023-05-27T17:42:17.722Z,4.50
2023-05-27T17:44:20.383Z,3.92
2023-05-27T17:46:23.309Z,4.68
2023-05-27T17:48:26.184Z,4.47
2023-05-27T17:50:29.020Z,4.78
2023-05-27T17:52:33.046Z,4.32
2023-05-27T17:54:37.650Z,4.85
2023-05-27T17:56:40.388Z,4.68
2023-05-27T17:58:43.059Z,4.63
2023-05-27T18:00:46.719Z,4.07
2023-05-27T18:02:50.760Z,4.38
2023-05-27T18:04:53.828Z,4.50
2023-05-27T18:06:56.554Z,4.28
2023-05-27T18:09:00.712Z,4.40
2023-05-27T18:11:03.856Z,4.80
2023-05-27T18:13:06.776Z,4.80
2023-05-27T18:15:10.889Z,5.97
2023-05-27T18:17:16.031Z,10.40
2023-05-27T18:19:19.146Z,4.53
2023-05-27T18:21:21.824Z,4.38
2023-05-27T18:23:24.912Z,4.63
2023-05-27T18:25:28.854Z,4.30
2023-05-27T18:27:31.618Z,4.38
2023-05-27T18:29:34.909Z,4.97
2023-05-27T18:31:37.826Z,5.43
2023-05-27T18:33:40.621Z,4.72
2023-05-27T18:35:43.818Z,4.57
2023-05-27T18:37:46.765Z,4.95
2023-05-27T18:39:49.457Z,4.65
2023-05-27T18:41:53.645Z,4.80
2023-05-27T18:43:56.314Z,4.93
2023-05-27T18:46:00.654Z,5.32
2023-05-27T18:48:03.481Z,5.47
2023-05-27T18:50:08.104Z,5.90
2023-05-27T18:52:11.965Z,4.53
2023-05-27T18:54:14.575Z,5.30
2023-05-27T18:56:18.654Z,4.63
2023-05-27T18:58:22.679Z,5.03
2023-05-27T19:00:25.363Z,5.00
2023-05-27T19:02:28.140Z,5.07
2023-05-27T19:04:31.153Z,5.10
2023-05-27T19:06:34.062Z,5.60
2023-05-27T19:08:36.664Z,5.25
2023-05-27T19:10:40.877Z,5.50
2023-05-27T19:12:43.558Z,6.10
2023-05-27T19:14:47.616Z,5.80
2023-05-27T19:16:50.285Z,5.38
2023-05-27T19:18:54.375Z,5.35
2023-05-27T19:20:57.032Z,5.32
2023-05-27T19:23:02.302Z,5.30
2023-05-27T19:25:05.456Z,5.18
2023-05-27T19:27:08.161Z,5.72
2023-05-27T19:29:10.985Z,6.00
2023-05-27T19:31:14.945Z,8.27
2023-05-27T19:33:17.743Z,7.65
2023-05-27T19:35:20.366Z,6.03
2023-05-27T19:37:23.071Z,7.43
2023-05-27T19:39:25.713Z,6.80
2023-05-27T19:41:28.421Z,6.40
2023-05-27T19:43:31.048Z,6.68
2023-05-27T19:45:33.717Z,6.15
2023-05-27T19:47:37.728Z,7.50
2023-05-27T19:49:40.350Z,6.63
2023-05-27T19:51:43.005Z,7.13
2023-05-27T19:53:45.906Z,6.90
2023-05-27T19:55:48.540Z,6.15
2023-05-27T19:57:51.186Z,6.85
2023-05-27T19:59:54.376Z,6.75
2023-05-27T20:01:57.017Z,6.78
2023-05-27T20:04:01.290Z,6.38
2023-05-27T20:06:04.017Z,7.05
2023-05-27T20:08:06.624Z,7.93
2023-05-27T20:10:10.540Z,7.50
2023-05-27T20:12:13.171Z,6.93
2023-05-27T20:14:20.838Z,7.28
2023-05-27T20:16:24.333Z,7.55
2023-05-27T20:18:27.988Z,7.03
2023-05-27T20:20:37.675Z,7.03
2023-05-27T20:22:41.405Z,7.05
2023-05-27T20:24:44.135Z,7.90
2023-05-27T20:26:46.867Z,7.63
2023-05-27T20:28:49.492Z,7.13
2023-05-27T20:30:53.078Z,6.40
2023-05-27T20:32:56.387Z,7.45
2023-05-27T20:34:59.087Z,7.05
2023-05-27T20:37:03.062Z,9.25
2023-05-27T20:39:05.753Z,8.55
2023-05-27T20:41:09.650Z,10.43
2023-05-27T20:43:12.357Z,9.10
2023-05-27T20:45:16.144Z,10.98
2023-05-27T20:47:18.870Z,12.82
2023-05-27T20:49:21.537Z,12.20
2023-05-27T20:51:24.577Z,13.65
2023-05-27T20:53:28.636Z,11.05
2023-05-27T20:55:31.298Z,10.18
2023-05-27T20:57:33.894Z,9.48
2023-05-27T20:59:36.628Z,10.27
2023-05-27T21:01:40.829Z,9.05
2023-05-27T21:03:43.945Z,9.90
2023-05-27T21:05:47.564Z,10.23
2023-05-27T21:07:52.443Z,9.63
2023-05-27T21:09:56.452Z,9.20
2023-05-27T21:11:59.146Z,9.45
2023-05-27T21:14:01.847Z,9.43
2023-05-27T21:16:04.595Z,9.30
2023-05-27T21:18:10.056Z,9.88
2023-05-27T21:20:13.507Z,7.55
2023-05-27T21:22:16.537Z,8.38
2023-05-27T21:24:19.407Z,8.63
2023-05-27T21:26:23.605Z,10.85
2023-05-27T21:28:26.467Z,11.00
2023-05-27T21:30:29.106Z,12.60
2023-05-27T21:32:31.821Z,11.45
2023-05-27T21:34:34.517Z,10.35
2023-05-27T21:36:37.352Z,11.32
2023-05-27T21:38:40.141Z,12.38
2023-05-27T21:40:42.795Z,12.75
2023-05-27T21:42:46.840Z,10.93
2023-05-27T21:44:50.688Z,10.50
2023-05-27T21:46:54.001Z,9.82
2023-05-27T21:48:56.662Z,9.68
2023-05-27T21:50:59.319Z,9.25
2023-05-27T21:53:04.711Z,10.90
2023-05-27T21:55:08.175Z,11.25
2023-05-27T21:57:10.800Z,9.88
2023-05-27T21:59:14.769Z,10.57
2023-05-27T22:01:17.559Z,11.88
2023-05-27T22:03:20.363Z,11.32
2023-05-27T22:05:23.071Z,11.45
2023-05-27T22:07:25.718Z,11.85
2023-05-27T22:09:28.344Z,11.55
2023-05-27T22:11:30.979Z,10.43
2023-05-27T22:13:33.673Z,10.07
2023-05-27T22:15:37.625Z,9.60
2023-05-27T22:17:40.370Z,9.25
2023-05-27T22:19:43.912Z,9.75
2023-05-27T22:21:46.517Z,8.68
2023-05-27T22:23:49.217Z,8.85
2023-05-27T22:25:51.974Z,8.45
2023-05-27T22:27:55.646Z,7.95
2023-05-27T22:29:58.273Z,7.65
2023-05-27T22:32:02.531Z,7.32
2023-05-27T22:34:06.186Z,8.20
2023-05-27T22:36:12.023Z,7.93
2023-05-27T22:38:14.844Z,8.20
2023-05-27T22:40:19.125Z,8.85
2023-05-27T22:42:21.707Z,9.93
2023-05-27T22:44:24.386Z,8.65
2023-05-27T22:46:29.973Z,8.68
2023-05-27T22:48:34.076Z,9.52
2023-05-27T22:50:36.807Z,9.63
2023-05-27T22:52:39.622Z,9.32
2023-05-27T22:54:42.310Z,8.75
2023-05-27T22:56:45.010Z,10.15
2023-05-27T22:58:48.508Z,9.50
2023-05-27T23:00:51.326Z,10.95
2023-05-27T23:02:54.030Z,12.93
2023-05-27T23:04:58.128Z,10.60
2023-05-27T23:07:00.908Z,10.10
2023-05-27T23:09:03.699Z,8.02
2023-05-27T23:11:06.565Z,8.10
2023-05-27T23:13:09.452Z,8.73
2023-05-27T23:15:12.161Z,9.13
2023-05-27T23:17:14.874Z,7.97
2023-05-27T23:19:17.523Z,8.40
2023-05-27T23:21:21.579Z,8.00
2023-05-27T23:23:24.186Z,7.40
2023-05-27T23:25:26.981Z,7.50
2023-05-27T23:27:29.587Z,7.55
2023-05-27T23:29:32.278Z,7.45
2023-05-27T23:31:34.939Z,7.50
2023-05-27T23:33:37.569Z,8.15
2023-05-27T23:35:40.222Z,7.43
2023-05-27T23:37:44.204Z,7.22
2023-05-27T23:39:46.888Z,7.03
2023-05-27T23:41:49.622Z,8.63
2023-05-27T23:43:52.323Z,8.40
2023-05-27T23:45:55.264Z,8.77
2023-05-27T23:47:58.267Z,8.20
2023-05-27T23:50:01.029Z,7.70
2023-05-27T23:52:04.030Z,7.97
2023-05-27T23:54:08.081Z,8.02
2023-05-27T23:56:10.847Z,8.38
2023-05-27T23:58:15.393Z,8.65
